Triune, Tennessee
Current Conditions -  °F | °C
As of 9:53 PM on Friday 28 Nov 2014 (Local Time) from KBNA Reporting Station
Few Clouds Few Clouds  
Wind Chill: 36°   Ceiling: Unl
Heat Index: 40°   Visibility: 10mi
Dew Point: 21°   Wind: 6mph
Humidity: 47%   Direction: 150°SSE
Pressure: 30.16"   Gusts: NA
Location:  35.8792°N, 86.6176°W
Report Text: KBNA 290353Z 15005KT 10SM FEW250 04/M06 A3016 RMK AO2 SLP215 T00441061
Loading
Personal Weather Stations






























Interactive Weather Map New forecast layout! Learn more

10-Day Weather Forecast

Advertisements
Track Severe Weather on mobile